createdAt,value
2022-10-11T00:01:18.632Z,2.10
2022-10-11T00:03:45.213Z,2.27
2022-10-11T00:06:11.756Z,2.38
2022-10-11T00:08:38.322Z,2.10
2022-10-11T00:11:06.965Z,2.47
2022-10-11T00:13:34.093Z,2.13
2022-10-11T00:16:00.643Z,2.20
2022-10-11T00:18:27.222Z,1.83
2022-10-11T00:21:05.648Z,1.70
2022-10-11T00:23:33.172Z,1.95
2022-10-11T00:26:01.342Z,1.90
2022-10-11T00:28:28.236Z,2.00
2022-10-11T00:30:54.845Z,1.55
2022-10-11T00:33:21.443Z,1.50
2022-10-11T00:35:48.734Z,1.50
2022-10-11T00:38:15.545Z,1.70
2022-10-11T00:40:42.222Z,1.80
2022-10-11T00:43:17.274Z,1.58
2022-10-11T00:46:20.676Z,1.67
2022-10-11T00:48:55.578Z,1.70
2022-10-11T00:51:36.448Z,1.40
2022-10-11T00:54:03.831Z,1.53
2022-10-11T00:56:34.189Z,1.52
2022-10-11T00:59:03.529Z,1.30
2022-10-11T01:01:30.258Z,1.30
2022-10-11T01:03:57.205Z,1.30
2022-10-11T01:06:23.802Z,1.37
2022-10-11T01:08:51.653Z,1.30
2022-10-11T01:11:20.824Z,1.20
2022-10-11T01:14:05.834Z,1.40
2022-10-11T01:16:37.894Z,1.00
2022-10-11T01:19:21.833Z,1.40
2022-10-11T01:22:23.305Z,0.90
2022-10-11T01:25:07.993Z,0.80
2022-10-11T01:27:36.625Z,1.02
2022-10-11T01:30:25.354Z,1.10
2022-10-11T01:33:16.130Z,1.27
2022-10-11T01:36:02.623Z,1.20
2022-10-11T01:38:45.832Z,1.20
2022-10-11T01:41:16.918Z,1.17
2022-10-11T01:43:44.360Z,0.90
2022-10-11T01:46:11.340Z,0.80
2022-10-11T01:48:51.689Z,1.25
2022-10-11T01:51:20.565Z,0.90
2022-10-11T01:54:00.177Z,0.95
2022-10-11T01:57:01.678Z,1.00
2022-10-11T01:59:37.313Z,1.10
2022-10-11T02:02:34.663Z,1.23
2022-10-11T02:05:19.757Z,0.90
2022-10-11T02:07:57.838Z,0.95
2022-10-11T02:10:44.446Z,0.80
2022-10-11T02:13:40.099Z,1.20
2022-10-11T02:16:12.758Z,0.73
2022-10-11T02:18:42.010Z,0.95
2022-10-11T02:21:10.597Z,0.70
2022-10-11T02:23:42.032Z,1.42
2022-10-11T02:26:09.917Z,1.00
2022-10-11T02:28:38.275Z,1.20
2022-10-11T02:31:06.663Z,0.98
2022-10-11T02:33:39.686Z,0.93
2022-10-11T02:36:13.116Z,0.98
2022-10-11T02:38:48.415Z,1.73
2022-10-11T02:41:29.723Z,0.85
2022-10-11T02:44:00.345Z,0.80
2022-10-11T02:46:30.419Z,0.65
2022-10-11T02:49:00.745Z,0.60
2022-10-11T02:51:30.420Z,0.87
2022-10-11T02:53:57.227Z,1.30
2022-10-11T02:56:23.762Z,1.00
2022-10-11T02:58:50.327Z,0.93
2022-10-11T03:01:16.929Z,0.85
2022-10-11T03:03:43.534Z,0.90
2022-10-11T03:06:10.094Z,0.90
2022-10-11T03:08:36.624Z,0.90
2022-10-11T03:11:03.168Z,1.05
2022-10-11T03:13:29.682Z,1.30
2022-10-11T03:16:03.148Z,1.30
2022-10-11T03:18:33.944Z,0.80
2022-10-11T03:21:00.485Z,0.85
2022-10-11T03:23:27.136Z,0.88
2022-10-11T03:25:53.740Z,1.17
2022-10-11T03:28:20.703Z,0.90
2022-10-11T03:30:51.308Z,0.90
2022-10-11T03:33:18.215Z,0.90
2022-10-11T03:35:46.111Z,0.88
2022-10-11T03:38:14.349Z,1.30
2022-10-11T03:40:42.161Z,1.40
2022-10-11T03:43:08.801Z,0.73
2022-10-11T03:45:35.527Z,0.98
2022-10-11T03:48:02.592Z,0.73
2022-10-11T03:50:29.129Z,1.00
2022-10-11T03:52:55.712Z,0.80
2022-10-11T03:55:22.237Z,0.90
2022-10-11T03:57:48.766Z,0.85
2022-10-11T04:00:15.475Z,0.70
2022-10-11T04:02:42.018Z,0.85
2022-10-11T04:05:08.928Z,0.50
2022-10-11T04:07:35.444Z,1.08
2022-10-11T04:10:02.010Z,1.02
2022-10-11T04:12:29.010Z,1.00
2022-10-11T04:14:55.586Z,1.33
2022-10-11T04:17:22.123Z,1.00
2022-10-11T04:19:48.709Z,1.08
2022-10-11T04:22:15.271Z,0.90
2022-10-11T04:24:41.823Z,0.90
2022-10-11T04:27:08.371Z,0.80
2022-10-11T04:29:34.904Z,0.97
2022-10-11T04:32:01.458Z,0.88
2022-10-11T04:34:28.088Z,1.20
2022-10-11T04:36:54.638Z,1.02
2022-10-11T04:39:21.261Z,1.85
2022-10-11T04:41:47.940Z,1.00
2022-10-11T04:44:14.571Z,0.70
2022-10-11T04:46:41.211Z,0.80
2022-10-11T04:49:07.754Z,1.52
2022-10-11T04:51:34.296Z,1.10
2022-10-11T04:54:00.843Z,0.90
2022-10-11T04:56:27.418Z,0.80
2022-10-11T04:58:54.669Z,1.00
2022-10-11T05:01:21.386Z,0.90
2022-10-11T05:03:48.132Z,1.58
2022-10-11T05:06:14.762Z,0.70
2022-10-11T05:08:41.627Z,1.17
2022-10-11T05:11:12.437Z,0.80
2022-10-11T05:13:40.562Z,0.98
2022-10-11T05:16:10.811Z,0.80
2022-10-11T05:18:38.368Z,0.80
2022-10-11T05:21:14.554Z,0.93
2022-10-11T05:23:41.232Z,0.82
2022-10-11T05:26:08.248Z,1.02
2022-10-11T05:28:35.121Z,0.90
2022-10-11T05:31:01.701Z,1.00
2022-10-11T05:33:28.349Z,0.95
2022-10-11T05:35:54.919Z,0.80
2022-10-11T05:38:21.677Z,1.10
2022-10-11T05:40:48.653Z,1.05
2022-10-11T05:43:15.323Z,1.07
2022-10-11T05:45:43.936Z,1.20
2022-10-11T05:48:11.173Z,1.15
2022-10-11T05:50:38.431Z,1.05
2022-10-11T05:53:05.359Z,1.15
2022-10-11T05:55:39.630Z,0.93
2022-10-11T05:58:06.874Z,1.15
2022-10-11T06:00:36.797Z,1.42
2022-10-11T06:03:04.132Z,1.25
2022-10-11T06:05:30.879Z,1.00
2022-10-11T06:08:00.162Z,1.03
2022-10-11T06:10:27.076Z,1.40
2022-10-11T06:12:53.682Z,1.17
2022-10-11T06:15:20.281Z,1.00
2022-10-11T06:17:47.124Z,1.20
2022-10-11T06:20:14.595Z,1.10
2022-10-11T06:22:41.242Z,1.02
2022-10-11T06:25:08.301Z,1.30
2022-10-11T06:27:34.866Z,1.20
2022-10-11T06:30:01.463Z,1.00
2022-10-11T06:32:28.006Z,1.30
2022-10-11T06:34:54.814Z,1.23
2022-10-11T06:37:21.353Z,1.20
2022-10-11T06:39:48.042Z,1.48
2022-10-11T06:42:14.568Z,1.67
2022-10-11T06:44:41.107Z,1.33
2022-10-11T06:47:08.666Z,1.30
2022-10-11T06:49:35.452Z,1.23
2022-10-11T06:52:02.065Z,1.88
2022-10-11T06:54:28.594Z,1.50
2022-10-11T06:56:55.150Z,1.50
2022-10-11T06:59:21.701Z,1.40
2022-10-11T07:01:48.256Z,1.48
2022-10-11T07:04:14.798Z,1.55
2022-10-11T07:06:41.660Z,1.42
2022-10-11T07:09:08.773Z,1.00
2022-10-11T07:11:35.541Z,1.50
2022-10-11T07:14:07.589Z,1.27
2022-10-11T07:16:36.198Z,1.65
2022-10-11T07:19:04.218Z,1.50
2022-10-11T07:21:32.038Z,1.03
2022-10-11T07:23:58.998Z,1.65
2022-10-11T07:26:25.765Z,1.75
2022-10-11T07:28:52.379Z,1.50
2022-10-11T07:31:21.891Z,1.85
2022-10-11T07:33:48.882Z,1.37
2022-10-11T07:36:15.738Z,1.33
2022-10-11T07:38:43.531Z,1.33
2022-10-11T07:41:11.268Z,1.35
2022-10-11T07:43:38.668Z,1.70
2022-10-11T07:46:06.082Z,1.60
2022-10-11T07:48:34.624Z,1.40
2022-10-11T07:51:04.734Z,1.77
2022-10-11T07:53:31.315Z,1.65
2022-10-11T07:56:02.243Z,2.30
2022-10-11T07:58:29.159Z,1.40
2022-10-11T08:00:55.779Z,1.98
2022-10-11T08:03:22.697Z,1.70
2022-10-11T08:05:49.430Z,1.70
2022-10-11T08:08:15.998Z,1.60
2022-10-11T08:10:42.620Z,1.77
2022-10-11T08:13:09.201Z,2.00
2022-10-11T08:15:36.067Z,1.90
2022-10-11T08:18:02.636Z,1.70
2022-10-11T08:20:31.101Z,1.50
2022-10-11T08:22:57.672Z,1.73
2022-10-11T08:25:24.255Z,1.48
2022-10-11T08:27:50.816Z,1.67
2022-10-11T08:30:17.534Z,1.90
2022-10-11T08:32:44.094Z,1.65
2022-10-11T08:35:10.626Z,1.53
2022-10-11T08:37:37.299Z,2.03
2022-10-11T08:40:05.860Z,1.90
2022-10-11T08:42:38.950Z,1.50
2022-10-11T08:45:12.104Z,2.00
2022-10-11T08:47:41.190Z,1.70
2022-10-11T08:50:14.675Z,1.70
2022-10-11T08:52:59.987Z,2.00
2022-10-11T08:55:34.837Z,1.85
2022-10-11T08:58:01.993Z,1.65
2022-10-11T09:00:31.648Z,1.70
2022-10-11T09:03:09.384Z,3.42
2022-10-11T09:05:45.905Z,2.22
2022-10-11T09:08:22.375Z,2.55
2022-10-11T09:11:23.040Z,1.73
2022-10-11T09:14:08.338Z,2.53
2022-10-11T09:16:57.574Z,2.45
2022-10-11T09:19:51.717Z,2.05
2022-10-11T09:22:43.250Z,2.03
2022-10-11T09:25:25.922Z,1.63
2022-10-11T09:28:17.838Z,1.93
2022-10-11T09:30:49.117Z,1.67
2022-10-11T09:33:21.558Z,1.95
2022-10-11T09:35:50.694Z,1.92
2022-10-11T09:38:36.646Z,1.60
2022-10-11T09:41:05.509Z,1.80
2022-10-11T09:43:32.041Z,1.30
2022-10-11T09:45:58.681Z,1.50
2022-10-11T09:48:28.744Z,1.67
2022-10-11T09:51:02.021Z,1.33
2022-10-11T09:53:51.974Z,1.30
2022-10-11T09:56:18.686Z,1.52
2022-10-11T09:58:45.277Z,1.45
2022-10-11T10:01:13.999Z,1.50
2022-10-11T10:03:42.290Z,1.30
2022-10-11T10:06:23.680Z,1.30
2022-10-11T10:08:50.678Z,1.45
2022-10-11T10:11:18.712Z,1.45
2022-10-11T10:13:51.861Z,1.58
2022-10-11T10:16:25.646Z,1.63
2022-10-11T10:18:56.037Z,1.10
2022-10-11T10:21:44.129Z,0.90
2022-10-11T10:24:29.119Z,1.17
2022-10-11T10:27:22.725Z,0.98
2022-10-11T10:30:10.293Z,1.42
2022-10-11T10:32:52.216Z,0.70
2022-10-11T10:35:46.671Z,1.50
2022-10-11T10:38:26.364Z,1.00
2022-10-11T10:41:09.350Z,1.20
2022-10-11T10:43:37.999Z,1.00
2022-10-11T10:46:23.306Z,1.23
2022-10-11T10:49:41.122Z,1.20
2022-10-11T10:52:20.785Z,1.23
2022-10-11T10:55:05.542Z,0.80
2022-10-11T10:58:07.146Z,1.08
2022-10-11T11:00:42.544Z,1.13
2022-10-11T11:03:16.617Z,1.10
2022-10-11T11:05:51.050Z,0.95
2022-10-11T11:08:38.954Z,1.02
2022-10-11T11:11:24.179Z,0.95
2022-10-11T11:14:11.545Z,1.23
2022-10-11T11:16:47.920Z,0.80
2022-10-11T11:19:26.999Z,0.80
2022-10-11T11:22:02.189Z,0.75
2022-10-11T11:24:34.605Z,0.73
2022-10-11T11:27:13.124Z,1.07
2022-10-11T11:30:05.463Z,1.10
2022-10-11T11:32:52.174Z,0.80
2022-10-11T11:35:33.542Z,0.88
2022-10-11T11:38:43.577Z,0.70
2022-10-11T11:41:26.040Z,0.80
2022-10-11T11:43:57.178Z,1.25
2022-10-11T11:46:29.376Z,1.02
2022-10-11T11:48:58.698Z,0.70
2022-10-11T11:51:31.550Z,0.70
2022-10-11T11:54:06.079Z,0.63
2022-10-11T11:57:04.692Z,1.05
2022-10-11T11:59:31.146Z,0.60
2022-10-11T12:02:12.957Z,0.70
2022-10-11T12:04:42.297Z,0.80
2022-10-11T12:07:16.405Z,0.73
2022-10-11T12:09:46.114Z,0.70
2022-10-11T12:12:29.471Z,0.70
2022-10-11T12:15:25.730Z,0.75
2022-10-11T12:17:55.854Z,0.75
2022-10-11T12:20:29.179Z,1.27
2022-10-11T12:22:58.421Z,0.80
2022-10-11T12:25:28.660Z,0.70
2022-10-11T12:28:00.332Z,0.88
2022-10-11T12:30:48.278Z,0.95
2022-10-11T12:33:32.202Z,0.80
2022-10-11T12:36:05.710Z,0.80
2022-10-11T12:38:37.850Z,0.70
2022-10-11T12:41:10.379Z,0.60
2022-10-11T12:44:17.030Z,0.68
2022-10-11T12:47:12.913Z,0.77
2022-10-11T12:50:06.754Z,1.05
2022-10-11T12:52:52.134Z,0.93
2022-10-11T12:55:22.932Z,0.57
2022-10-11T12:58:07.445Z,1.10
2022-10-11T13:00:41.588Z,0.73
2022-10-11T13:03:35.339Z,0.60
2022-10-11T13:06:27.768Z,0.90
2022-10-11T13:08:58.770Z,0.70
2022-10-11T13:11:29.976Z,1.02
2022-10-11T13:14:13.261Z,0.80
2022-10-11T13:17:00.958Z,0.70
2022-10-11T13:19:28.514Z,0.50
2022-10-11T13:21:58.165Z,0.80
2022-10-11T13:24:26.172Z,1.00
2022-10-11T13:26:55.334Z,0.60
2022-10-11T13:29:34.109Z,0.80
2022-10-11T13:32:08.264Z,1.10
2022-10-11T13:34:38.473Z,0.90
2022-10-11T13:37:05.957Z,0.65
2022-10-11T13:39:38.176Z,1.10
2022-10-11T13:42:10.839Z,0.68
2022-10-11T13:44:38.580Z,0.70
2022-10-11T13:47:05.446Z,1.10
2022-10-11T13:49:37.697Z,0.60
2022-10-11T13:52:26.977Z,0.67
2022-10-11T13:54:53.505Z,0.55
2022-10-11T13:57:21.927Z,0.82
2022-10-11T13:59:48.479Z,0.88
2022-10-11T14:02:18.513Z,0.70
2022-10-11T14:04:45.079Z,0.90
2022-10-11T14:07:31.821Z,0.60
2022-10-11T14:09:58.423Z,0.75
2022-10-11T14:12:43.258Z,0.70
2022-10-11T14:15:26.329Z,0.75
2022-10-11T14:17:53.132Z,0.60
2022-10-11T14:20:29.535Z,0.80
2022-10-11T14:22:58.871Z,0.55
2022-10-11T14:25:25.428Z,0.75
2022-10-11T14:27:52.038Z,0.77
2022-10-11T14:30:26.205Z,1.20
2022-10-11T14:32:55.525Z,0.80
2022-10-11T14:35:24.756Z,0.80
2022-10-11T14:37:51.960Z,1.00
2022-10-11T14:40:21.608Z,0.60
2022-10-11T14:42:48.432Z,0.90
2022-10-11T14:45:15.041Z,0.75
2022-10-11T14:47:43.166Z,0.73
2022-10-11T14:50:37.527Z,0.73
2022-10-11T14:53:04.776Z,0.68
2022-10-11T14:55:31.654Z,0.50
2022-10-11T14:57:58.399Z,0.50
2022-10-11T15:00:26.851Z,0.70
2022-10-11T15:02:53.912Z,0.88
2022-10-11T15:05:21.927Z,0.57
2022-10-11T15:07:48.899Z,0.90
2022-10-11T15:10:22.221Z,0.93
2022-10-11T15:12:50.129Z,1.00
2022-10-11T15:15:22.405Z,1.10
2022-10-11T15:17:54.789Z,0.70
2022-10-11T15:20:34.181Z,1.23
2022-10-11T15:23:01.376Z,0.70
2022-10-11T15:25:29.083Z,0.60
2022-10-11T15:27:56.534Z,1.05
2022-10-11T15:30:25.458Z,0.70
2022-10-11T15:32:52.779Z,0.90
2022-10-11T15:35:20.602Z,0.90
2022-10-11T15:37:47.314Z,1.17
2022-10-11T15:40:20.024Z,0.80
2022-10-11T15:42:46.909Z,0.88
2022-10-11T15:45:13.545Z,1.10
2022-10-11T15:47:40.192Z,1.23
2022-10-11T15:50:39.281Z,0.77
2022-10-11T15:53:15.814Z,1.20
2022-10-11T15:55:46.659Z,1.13
2022-10-11T15:58:13.512Z,0.97
2022-10-11T16:00:40.264Z,0.90
2022-10-11T16:03:07.136Z,0.90
2022-10-11T16:05:33.806Z,1.08
2022-10-11T16:08:00.413Z,1.00
2022-10-11T16:10:27.011Z,1.30
2022-10-11T16:12:53.656Z,0.70
2022-10-11T16:15:20.196Z,1.80
2022-10-11T16:17:47.118Z,0.90
2022-10-11T16:20:14.182Z,1.05
2022-10-11T16:22:41.357Z,1.00
2022-10-11T16:25:07.938Z,0.93
2022-10-11T16:27:34.783Z,0.80
2022-10-11T16:30:01.458Z,0.90
2022-10-11T16:32:28.438Z,0.90
2022-10-11T16:34:54.978Z,0.80
2022-10-11T16:37:21.574Z,1.00
2022-10-11T16:39:48.155Z,0.95
2022-10-11T16:42:14.782Z,1.10
2022-10-11T16:44:41.324Z,1.00
2022-10-11T16:47:07.910Z,0.87
2022-10-11T16:49:34.858Z,1.15
2022-10-11T16:52:03.862Z,1.00
2022-10-11T16:54:31.011Z,1.13
2022-10-11T16:56:58.534Z,1.05
2022-10-11T16:59:25.497Z,0.57
2022-10-11T17:01:52.054Z,0.70
2022-10-11T17:04:18.743Z,1.00
2022-10-11T17:06:45.362Z,1.00
2022-10-11T17:09:11.971Z,0.90
2022-10-11T17:11:38.679Z,0.97
2022-10-11T17:14:06.187Z,0.88
2022-10-11T17:16:32.903Z,0.73
2022-10-11T17:18:59.539Z,1.00
2022-10-11T17:21:26.120Z,0.88
2022-10-11T17:23:52.760Z,0.70
2022-10-11T17:26:23.231Z,0.80
2022-10-11T17:28:50.000Z,0.90
2022-10-11T17:31:17.122Z,1.00
2022-10-11T17:33:43.689Z,0.70
2022-10-11T17:36:23.041Z,1.00
2022-10-11T17:38:51.253Z,0.70
2022-10-11T17:41:18.335Z,0.60
2022-10-11T17:43:45.088Z,0.90
2022-10-11T17:46:12.975Z,0.77
2022-10-11T17:48:39.606Z,0.70
2022-10-11T17:51:11.265Z,0.98
2022-10-11T17:53:38.123Z,0.70
2022-10-11T17:56:14.206Z,0.90
2022-10-11T17:58:41.037Z,0.95
2022-10-11T18:01:10.821Z,0.87
2022-10-11T18:03:37.976Z,0.75
2022-10-11T18:06:09.836Z,1.10
2022-10-11T18:08:40.603Z,0.80
2022-10-11T18:11:12.609Z,0.95
2022-10-11T18:13:42.398Z,0.80
2022-10-11T18:16:10.705Z,0.80
2022-10-11T18:18:37.967Z,0.88
2022-10-11T18:21:04.765Z,0.95
2022-10-11T18:23:31.644Z,0.50
2022-10-11T18:25:58.204Z,0.60
2022-10-11T18:28:24.862Z,0.60
2022-10-11T18:30:53.122Z,0.85
2022-10-11T18:33:19.671Z,0.77
2022-10-11T18:35:46.198Z,0.70
2022-10-11T18:38:12.713Z,0.70
2022-10-11T18:40:43.423Z,0.70
2022-10-11T18:43:13.099Z,0.65
2022-10-11T18:45:39.616Z,0.80
2022-10-11T18:48:08.424Z,0.90
2022-10-11T18:50:35.582Z,0.80
2022-10-11T18:55:29.731Z,0.73
2022-10-11T18:57:56.358Z,0.63
2022-10-11T19:00:40.046Z,0.85
2022-10-11T19:03:07.529Z,0.80
2022-10-11T19:05:34.151Z,0.50
2022-10-11T19:08:00.798Z,0.70
2022-10-11T19:10:27.342Z,0.70
2022-10-11T19:12:55.451Z,0.70
2022-10-11T19:15:26.464Z,1.03
2022-10-11T19:17:55.137Z,1.23
2022-10-11T19:20:21.870Z,0.82
2022-10-11T19:22:48.470Z,0.93
2022-10-11T19:25:15.212Z,0.75
2022-10-11T19:27:41.737Z,0.80
2022-10-11T19:30:09.036Z,0.80
2022-10-11T19:32:35.651Z,0.60
2022-10-11T19:35:02.208Z,1.10
2022-10-11T19:37:28.985Z,0.88
2022-10-11T19:39:55.750Z,0.70
2022-10-11T19:42:22.343Z,0.70
2022-10-11T19:44:48.894Z,0.90
2022-10-11T19:47:16.273Z,0.60
2022-10-11T19:49:42.822Z,0.73
2022-10-11T19:52:09.534Z,0.77
2022-10-11T19:54:36.064Z,0.70
2022-10-11T19:57:02.869Z,0.73
2022-10-11T19:59:29.442Z,0.75
2022-10-11T20:01:55.990Z,0.65
2022-10-11T20:04:50.533Z,0.87
2022-10-11T20:07:11.070Z,1.40
2022-10-11T20:09:37.629Z,0.82
2022-10-11T20:12:04.393Z,0.85
2022-10-11T20:14:30.965Z,0.80
2022-10-11T20:16:57.500Z,0.90
2022-10-11T20:19:30.721Z,0.70
2022-10-11T20:21:58.758Z,1.08
2022-10-11T20:24:27.425Z,0.82
2022-10-11T20:26:54.326Z,0.70
2022-10-11T20:29:20.864Z,0.80
2022-10-11T20:31:47.403Z,0.90
2022-10-11T20:34:13.987Z,0.77
2022-10-11T20:36:40.681Z,0.90
2022-10-11T20:39:07.273Z,0.70
2022-10-11T20:41:37.050Z,1.30
2022-10-11T20:44:03.908Z,1.08
2022-10-11T20:46:32.857Z,1.13
2022-10-11T20:49:02.383Z,0.93
2022-10-11T20:51:33.869Z,0.85
2022-10-11T20:54:02.071Z,1.00
2022-10-11T20:56:29.704Z,0.70
2022-10-11T20:58:57.159Z,0.63
2022-10-11T21:01:35.557Z,1.27
2022-10-11T21:04:02.459Z,0.90
2022-10-11T21:06:30.151Z,1.03
2022-10-11T21:08:58.938Z,0.70
2022-10-11T21:11:31.194Z,0.80
2022-10-11T21:13:59.020Z,0.77
2022-10-11T21:16:26.139Z,0.60
2022-10-11T21:18:54.064Z,0.90
2022-10-11T21:21:21.090Z,1.00
2022-10-11T21:23:47.605Z,0.80
2022-10-11T21:26:16.737Z,0.70
2022-10-11T21:28:44.963Z,0.70
2022-10-11T21:31:14.338Z,0.77
2022-10-11T21:33:42.207Z,0.90
2022-10-11T21:36:11.386Z,0.57
2022-10-11T21:38:38.286Z,0.70
2022-10-11T21:41:09.433Z,0.65
2022-10-11T21:43:38.073Z,0.93
2022-10-11T21:46:11.602Z,0.90
2022-10-11T21:48:38.449Z,0.95
2022-10-11T21:51:05.313Z,0.55
2022-10-11T21:53:32.105Z,0.60
2022-10-11T21:56:01.550Z,1.00
2022-10-11T21:58:28.466Z,0.73
2022-10-11T22:00:55.039Z,0.63
2022-10-11T22:03:21.685Z,0.60
2022-10-11T22:05:48.551Z,0.90
2022-10-11T22:08:15.554Z,0.67
2022-10-11T22:10:52.127Z,0.85
2022-10-11T22:13:18.668Z,0.80
2022-10-11T22:15:45.186Z,0.70
2022-10-11T22:18:11.714Z,1.15
2022-10-11T22:20:38.243Z,1.10
2022-10-11T22:23:04.779Z,1.35
2022-10-11T22:25:31.311Z,1.08
2022-10-11T22:27:57.858Z,1.25
2022-10-11T22:30:24.396Z,1.73
2022-10-11T22:32:51.832Z,0.63
2022-10-11T22:35:19.122Z,1.10
2022-10-11T22:37:45.743Z,1.02
2022-10-11T22:40:12.301Z,0.90
2022-10-11T22:42:38.816Z,0.70
2022-10-11T22:45:05.730Z,0.50
2022-10-11T22:47:32.274Z,0.60
2022-10-11T22:49:58.819Z,0.70
2022-10-11T22:52:25.384Z,0.90
2022-10-11T22:54:51.931Z,1.23
2022-10-11T22:57:18.478Z,0.77
2022-10-11T22:59:45.004Z,0.60
2022-10-11T23:02:11.549Z,0.95
2022-10-11T23:04:38.061Z,0.80
2022-10-11T23:07:05.208Z,1.10
2022-10-11T23:09:31.904Z,0.90
2022-10-11T23:11:59.265Z,0.80
2022-10-11T23:14:25.817Z,0.90
2022-10-11T23:16:52.861Z,0.80
2022-10-11T23:19:19.553Z,0.98
2022-10-11T23:21:46.775Z,0.90
2022-10-11T23:24:13.509Z,0.93
2022-10-11T23:26:40.038Z,1.00
2022-10-11T23:29:06.567Z,1.10
2022-10-11T23:31:33.088Z,0.77
2022-10-11T23:33:59.618Z,1.07
2022-10-11T23:36:26.195Z,0.70
2022-10-11T23:38:54.401Z,0.60
2022-10-11T23:41:21.930Z,1.05
2022-10-11T23:43:48.458Z,0.90
2022-10-11T23:46:15.059Z,0.60
2022-10-11T23:48:41.700Z,1.02
2022-10-11T23:51:08.304Z,1.10
2022-10-11T23:53:35.263Z,0.90
2022-10-11T23:56:02.377Z,0.98
2022-10-11T23:58:28.967Z,0.60
